Time;durP1;ratioP1;P1;durP2;ratioP2;P2;SDS_P1;SDS_P2;PMS_P1;PMS_P2;Temp;Humidity;BMP_temperature;BMP_pressure;BME280_temperature;BME280_humidity;BME280_pressure;Samples;Min_cycle;Max_cycle;Signal;HPM_P1;HPM_P2
2023/09/09 00:00:52;;;;;;;9.20;8.05;;;15.40;99.90;;;;;;5003939;28;20046;-41
2023/09/09 00:03:21;;;;;;;12.15;8.23;;;15.30;99.90;;;;;;4976552;28;20427;-34
2023/09/09 00:05:48;;;;;;;9.82;8.30;;;15.30;99.90;;;;;;4997843;28;20116;-36
2023/09/09 00:08:15;;;;;;;8.88;7.43;;;15.20;99.90;;;;;;4998535;28;20030;-32
2023/09/09 00:10:41;;;;;;;10.20;7.37;;;15.20;99.90;;;;;;5004177;28;20044;-33
2023/09/09 00:13:07;;;;;;;12.75;8.43;;;15.20;99.90;;;;;;5004761;28;20026;-33
2023/09/09 00:15:33;;;;;;;10.60;8.88;;;15.20;99.90;;;;;;5005221;28;20060;-35
2023/09/09 00:18:00;;;;;;;12.05;8.77;;;15.20;99.90;;;;;;5001674;28;20029;-37
2023/09/09 00:20:29;;;;;;;10.35;7.80;;;15.10;99.90;;;;;;4988934;28;20465;-33
2023/09/09 00:22:55;;;;;;;8.70;7.40;;;15.10;99.90;;;;;;5005296;28;20107;-35
2023/09/09 00:25:21;;;;;;;5.75;5.25;;;15.10;99.90;;;;;;5001413;28;20030;-33
2023/09/09 00:27:46;;;;;;;5.95;4.90;;;14.80;99.90;;;;;;5007364;28;20045;-34
2023/09/09 00:30:12;;;;;;;6.75;6.00;;;14.80;99.90;;;;;;5003851;28;20030;-33
2023/09/09 00:32:38;;;;;;;6.05;5.45;;;14.80;99.90;;;;;;5003676;28;20128;-36
2023/09/09 00:35:04;;;;;;;5.93;5.03;;;14.60;99.90;;;;;;5004891;28;20048;-36
2023/09/09 00:37:30;;;;;;;5.57;5.05;;;14.50;99.90;;;;;;5004096;28;20070;-33
2023/09/09 00:39:55;;;;;;;7.03;5.93;;;14.60;99.90;;;;;;5007086;28;20603;-37
2023/09/09 00:42:21;;;;;;;8.38;7.50;;;14.60;99.90;;;;;;5000410;28;20030;-33
2023/09/09 00:44:46;;;;;;;6.90;6.25;;;14.60;99.90;;;;;;5004679;28;20120;-34
2023/09/09 00:47:12;;;;;;;6.85;6.15;;;14.50;99.90;;;;;;5004280;28;20149;-32
2023/09/09 00:49:38;;;;;;;7.05;6.30;;;14.50;99.90;;;;;;5001085;28;20041;-36
2023/09/09 00:52:04;;;;;;;9.15;7.47;;;14.50;99.90;;;;;;5001570;28;20018;-36
2023/09/09 00:54:30;;;;;;;8.13;7.03;;;14.50;99.90;;;;;;5002997;28;20080;-34
2023/09/09 00:57:00;;;;;;;10.45;8.50;;;14.50;99.90;;;;;;5012718;28;20503;-36
2023/09/09 00:59:26;;;;;;;7.85;6.97;;;14.50;99.90;;;;;;5003120;28;20365;-33
2023/09/09 01:01:52;;;;;;;7.32;6.63;;;14.30;99.90;;;;;;5003010;28;20038;-36
2023/09/09 01:04:18;;;;;;;7.93;6.70;;;14.20;99.90;;;;;;5001859;28;20540;-34
2023/09/09 01:06:44;;;;;;;7.72;6.93;;;14.10;99.90;;;;;;4998810;28;20049;-33
2023/09/09 01:09:10;;;;;;;7.10;6.10;;;14.10;99.90;;;;;;4990062;28;20037;-33
2023/09/09 01:11:36;;;;;;;7.30;6.60;;;14.00;99.90;;;;;;4991675;28;20038;-33
2023/09/09 01:14:02;;;;;;;6.82;6.20;;;14.00;99.90;;;;;;4993028;28;20038;-40
2023/09/09 01:16:29;;;;;;;7.95;6.68;;;14.10;99.90;;;;;;4992907;28;20029;-39
2023/09/09 01:18:55;;;;;;;7.88;6.88;;;14.10;99.90;;;;;;4991745;28;20030;-36
2023/09/09 01:21:23;;;;;;;6.32;5.72;;;13.90;99.90;;;;;;4991348;28;20034;-35
2023/09/09 01:23:49;;;;;;;6.57;5.40;;;13.90;99.90;;;;;;4992268;28;20144;-40
2023/09/09 01:26:15;;;;;;;8.57;6.30;;;14.00;99.90;;;;;;4992281;28;20052;-40
2023/09/09 01:28:41;;;;;;;6.15;5.43;;;14.00;99.90;;;;;;4991375;28;20045;-38
2023/09/09 01:31:08;;;;;;;5.53;4.88;;;13.90;99.90;;;;;;4986230;28;20152;-39
2023/09/09 01:33:33;;;;;;;5.95;5.45;;;13.80;99.90;;;;;;4993866;28;21859;-39
2023/09/09 01:35:59;;;;;;;7.55;6.32;;;13.80;99.90;;;;;;4993252;28;20045;-39
2023/09/09 01:38:24;;;;;;;8.38;6.35;;;13.90;99.90;;;;;;4988833;28;20112;-36
2023/09/09 01:40:50;;;;;;;8.20;6.50;;;13.90;99.90;;;;;;4986924;28;21938;-35
2023/09/09 01:43:16;;;;;;;8.75;6.65;;;13.90;99.90;;;;;;4987079;28;20034;-37
2023/09/09 01:45:41;;;;;;;8.02;6.20;;;13.90;99.90;;;;;;4987177;28;20084;-41
2023/09/09 01:48:07;;;;;;;9.70;6.70;;;14.00;99.90;;;;;;4987322;28;20030;-38
2023/09/09 01:50:33;;;;;;;8.30;7.28;;;14.10;99.90;;;;;;4988981;28;20038;-33
2023/09/09 01:53:00;;;;;;;10.05;7.72;;;14.10;99.90;;;;;;4990224;28;20069;-36
2023/09/09 01:55:26;;;;;;;7.75;6.95;;;14.00;99.90;;;;;;4986312;28;20030;-38
2023/09/09 01:58:04;;;;;;;6.57;5.97;;;13.90;99.90;;;;;;4985986;28;20112;-38
2023/09/09 02:00:30;;;;;;;6.75;6.05;;;13.80;99.90;;;;;;4987373;28;20617;-39
2023/09/09 02:02:56;;;;;;;5.97;5.43;;;13.70;99.90;;;;;;4973848;28;21699;-35
2023/09/09 02:05:22;;;;;;;5.85;5.25;;;13.70;99.90;;;;;;4967788;28;20033;-33
2023/09/09 02:07:47;;;;;;;3.78;3.47;;;13.80;99.90;;;;;;4987313;28;20036;-39
2023/09/09 02:10:13;;;;;;;5.03;3.28;;;13.80;99.90;;;;;;5000309;28;20030;-40
2023/09/09 02:12:38;;;;;;;4.80;4.30;;;13.80;99.90;;;;;;5007630;28;20484;-39
2023/09/09 02:15:04;;;;;;;4.63;4.22;;;13.80;99.90;;;;;;4982758;28;20418;-36
2023/09/09 02:17:30;;;;;;;3.90;3.60;;;13.70;99.90;;;;;;4998648;28;20068;-38
2023/09/09 02:19:56;;;;;;;4.00;3.58;;;13.70;99.90;;;;;;4984012;28;20389;-41
2023/09/09 02:22:23;;;;;;;5.15;3.90;;;13.70;99.90;;;;;;4981550;28;20047;-35
2023/09/09 02:24:56;;;;;;;3.65;3.45;;;13.60;99.90;;;;;;4987972;28;20034;-37
2023/09/09 02:27:22;;;;;;;4.88;4.28;;;13.50;99.90;;;;;;4996466;28;20030;-42
2023/09/09 02:29:48;;;;;;;5.07;4.68;;;13.50;99.90;;;;;;5010196;28;20084;-41
2023/09/09 02:32:15;;;;;;;5.20;4.70;;;13.50;99.90;;;;;;5001482;28;20128;-43
2023/09/09 02:34:41;;;;;;;5.47;4.93;;;13.50;99.90;;;;;;4990368;28;20042;-32
2023/09/09 02:37:17;;;;;;;6.25;5.65;;;13.50;99.90;;;;;;4970537;28;20965;-35
2023/09/09 02:39:53;;;;;;;5.65;5.15;;;13.50;99.90;;;;;;4991203;28;20061;-32
2023/09/09 02:42:23;;;;;;;5.47;5.00;;;13.50;99.90;;;;;;4981583;28;20041;-33
2023/09/09 02:44:50;;;;;;;6.30;5.70;;;13.50;99.90;;;;;;4986636;28;20018;-34
2023/09/09 02:47:16;;;;;;;5.95;5.35;;;13.60;99.90;;;;;;4983806;28;20371;-32
2023/09/09 02:49:43;;;;;;;7.30;5.50;;;13.60;99.90;;;;;;5003497;28;20091;-32
2023/09/09 02:52:15;;;;;;;5.40;4.90;;;13.60;99.90;;;;;;4990607;28;20121;-30
2023/09/09 02:54:41;;;;;;;6.63;5.70;;;13.60;99.90;;;;;;5011755;28;20018;-30
2023/09/09 02:57:07;;;;;;;6.95;5.70;;;13.60;99.90;;;;;;4994124;28;20511;-32
2023/09/09 02:59:36;;;;;;;5.40;4.93;;;13.60;99.90;;;;;;4989450;28;20029;-31
2023/09/09 03:02:02;;;;;;;6.88;5.30;;;13.60;99.90;;;;;;4985603;28;20034;-31
2023/09/09 03:04:28;;;;;;;6.55;5.00;;;13.70;99.90;;;;;;4988242;28;20036;-35
2023/09/09 03:06:58;;;;;;;5.70;5.22;;;13.70;99.90;;;;;;4983490;28;20967;-30
2023/09/09 03:09:25;;;;;;;5.65;4.90;;;13.70;99.90;;;;;;4983269;28;20029;-34
2023/09/09 03:11:57;;;;;;;5.37;4.87;;;13.60;99.90;;;;;;4999872;28;20065;-31
2023/09/09 03:14:26;;;;;;;5.55;4.90;;;13.60;99.90;;;;;;4986584;28;20076;-31
2023/09/09 03:16:52;;;;;;;5.20;4.38;;;13.60;99.90;;;;;;4985368;28;20033;-31
2023/09/09 03:19:18;;;;;;;4.63;4.18;;;13.50;99.90;;;;;;4986422;28;20109;-34
2023/09/09 03:21:44;;;;;;;4.30;3.92;;;13.50;99.90;;;;;;4987380;28;20129;-33
2023/09/09 03:24:09;;;;;;;4.07;3.78;;;13.50;99.90;;;;;;4985381;28;20029;-31
2023/09/09 03:26:35;;;;;;;3.88;3.58;;;13.50;99.90;;;;;;4989262;28;20789;-34
2023/09/09 03:29:01;;;;;;;4.82;4.43;;;13.40;99.90;;;;;;4982613;28;20096;-32
2023/09/09 03:31:27;;;;;;;4.82;4.43;;;13.40;99.90;;;;;;4982001;28;20041;-31
2023/09/09 03:33:56;;;;;;;5.28;4.60;;;13.30;99.90;;;;;;4987142;28;20026;-33
2023/09/09 03:36:22;;;;;;;3.55;3.25;;;13.30;99.90;;;;;;4982797;28;20378;-31
2023/09/09 03:38:48;;;;;;;2.63;2.42;;;13.30;99.90;;;;;;4983090;28;20045;-31
2023/09/09 03:41:20;;;;;;;3.00;2.80;;;13.10;99.90;;;;;;4982260;28;20022;-32
2023/09/09 03:43:46;;;;;;;3.10;2.70;;;13.20;99.90;;;;;;4981869;28;20377;-32
2023/09/09 03:46:12;;;;;;;3.83;3.53;;;13.20;99.90;;;;;;4981750;28;20025;-30
2023/09/09 03:48:38;;;;;;;3.45;3.15;;;13.20;99.90;;;;;;4980664;28;22018;-31
2023/09/09 03:51:04;;;;;;;2.80;2.60;;;13.30;99.90;;;;;;4982875;28;20037;-29
2023/09/09 03:53:30;;;;;;;3.97;3.55;;;13.30;99.90;;;;;;4994206;28;20025;-31
2023/09/09 03:55:55;;;;;;;4.63;4.22;;;13.30;99.90;;;;;;4982014;28;20042;-34
2023/09/09 03:58:25;;;;;;;4.40;4.00;;;13.30;99.90;;;;;;4983629;28;20043;-31
2023/09/09 04:01:08;;;;;;;7.63;4.85;;;13.30;99.90;;;;;;4981355;28;22197;-32
2023/09/09 04:03:35;;;;;;;5.78;4.72;;;13.30;99.90;;;;;;5002130;28;20034;-31
2023/09/09 04:06:08;;;;;;;5.53;5.03;;;13.30;99.90;;;;;;4983211;28;20064;-34
2023/09/09 04:08:35;;;;;;;7.28;5.90;;;13.30;99.90;;;;;;4982298;28;20042;-31
2023/09/09 04:11:01;;;;;;;5.10;4.60;;;13.30;99.90;;;;;;4979231;28;20030;-33
2023/09/09 04:13:27;;;;;;;4.35;4.05;;;13.30;99.90;;;;;;4981894;28;20513;-31
2023/09/09 04:15:54;;;;;;;4.00;3.63;;;13.30;99.90;;;;;;4983350;28;20057;-31
2023/09/09 04:18:20;;;;;;;4.00;3.70;;;13.30;99.90;;;;;;4998243;28;20038;-34
2023/09/09 04:20:48;;;;;;;4.40;4.00;;;13.30;99.90;;;;;;4986796;28;20639;-31
2023/09/09 04:23:15;;;;;;;4.60;4.10;;;13.40;99.90;;;;;;4982687;28;20026;-31
2023/09/09 04:25:45;;;;;;;13.93;5.82;;;13.40;99.90;;;;;;4985925;28;20026;-34
2023/09/09 04:28:12;;;;;;;5.55;4.82;;;13.40;99.90;;;;;;4983895;28;20034;-31
2023/09/09 04:30:41;;;;;;;6.78;5.20;;;13.40;99.90;;;;;;4983434;28;20370;-30
2023/09/09 04:33:11;;;;;;;5.75;4.88;;;13.30;99.90;;;;;;4980655;28;20046;-30
2023/09/09 04:35:39;;;;;;;5.07;4.43;;;13.30;99.90;;;;;;4984753;28;20429;-31
2023/09/09 04:38:06;;;;;;;5.88;5.28;;;13.40;99.90;;;;;;4986290;28;20018;-33
2023/09/09 04:40:33;;;;;;;16.80;6.25;;;13.40;99.90;;;;;;4980505;28;20022;-30
2023/09/09 04:42:59;;;;;;;8.40;6.95;;;13.40;99.90;;;;;;4978580;28;20614;-32
2023/09/09 04:45:25;;;;;;;9.43;7.85;;;13.30;99.90;;;;;;4992333;28;20029;-37
2023/09/09 04:47:51;;;;;;;10.45;7.85;;;13.30;99.90;;;;;;4986580;28;20502;-34
2023/09/09 04:50:21;;;;;;;23.92;8.35;;;13.30;99.90;;;;;;4975389;28;20031;-39
2023/09/09 04:52:50;;;;;;;11.57;9.45;;;13.30;99.90;;;;;;4977546;28;20656;-42
2023/09/09 04:55:16;;;;;;;9.32;7.45;;;13.30;99.90;;;;;;4979787;28;20023;-33
2023/09/09 04:57:42;;;;;;;9.13;7.18;;;13.30;99.90;;;;;;4985257;28;20029;-32
2023/09/09 05:00:09;;;;;;;9.20;6.85;;;13.30;99.90;;;;;;4982956;28;20532;-34
2023/09/09 05:02:37;;;;;;;8.53;7.13;;;13.30;99.90;;;;;;4988479;28;20026;-37
2023/09/09 05:05:04;;;;;;;8.57;6.97;;;13.30;99.90;;;;;;4982886;28;20031;-33
2023/09/09 05:07:34;;;;;;;10.57;8.18;;;13.40;99.90;;;;;;4984534;28;20666;-37
2023/09/09 05:10:02;;;;;;;9.23;8.05;;;13.40;99.90;;;;;;4981143;28;20124;-34
2023/09/09 05:12:29;;;;;;;8.45;7.50;;;13.40;99.90;;;;;;4982042;28;20062;-33
2023/09/09 05:14:56;;;;;;;8.45;7.53;;;13.40;99.90;;;;;;4981141;28;20065;-33
2023/09/09 05:17:21;;;;;;;9.18;7.70;;;13.40;99.90;;;;;;4985479;28;20054;-32
2023/09/09 05:19:47;;;;;;;9.65;7.95;;;13.40;99.90;;;;;;4991972;28;20515;-33
2023/09/09 05:22:12;;;;;;;9.75;7.93;;;13.40;99.90;;;;;;4994889;28;20069;-36
2023/09/09 05:24:38;;;;;;;10.50;7.85;;;13.40;99.90;;;;;;4989913;28;20053;-32
2023/09/09 05:27:04;;;;;;;9.75;8.30;;;13.40;99.90;;;;;;4981516;28;20635;-34
2023/09/09 05:29:30;;;;;;;12.40;8.38;;;13.30;99.90;;;;;;5000495;28;20057;-33
2023/09/09 05:31:56;;;;;;;11.18;8.85;;;13.30;99.90;;;;;;5001682;28;20042;-34
2023/09/09 05:34:22;;;;;;;11.63;8.20;;;13.30;99.90;;;;;;5005307;28;20097;-33
2023/09/09 05:36:51;;;;;;;12.32;8.75;;;13.40;99.90;;;;;;4988067;28;20432;-36
2023/09/09 05:39:17;;;;;;;14.32;8.80;;;13.40;99.90;;;;;;5010082;28;20117;-35
2023/09/09 05:41:43;;;;;;;10.57;8.88;;;13.50;99.90;;;;;;5010281;28;20065;-32
2023/09/09 05:44:09;;;;;;;11.57;9.20;;;13.50;99.90;;;;;;4991051;28;20021;-34
2023/09/09 05:46:35;;;;;;;12.20;8.93;;;13.50;99.90;;;;;;4988932;28;20066;-37
2023/09/09 05:49:02;;;;;;;11.65;9.10;;;13.50;99.90;;;;;;4985644;28;20037;-32
2023/09/09 05:51:28;;;;;;;13.70;9.75;;;13.60;99.90;;;;;;5004068;28;20028;-33
2023/09/09 05:53:53;;;;;;;13.55;9.52;;;13.60;99.90;;;;;;4981755;28;20036;-33
2023/09/09 05:56:19;;;;;;;12.18;8.98;;;13.70;99.90;;;;;;5003776;28;20022;-32
2023/09/09 05:58:45;;;;;;;12.75;9.55;;;13.80;99.90;;;;;;4987313;28;20034;-35
2023/09/09 06:01:11;;;;;;;14.45;10.05;;;13.90;99.90;;;;;;4984024;28;20045;-32
2023/09/09 06:03:36;;;;;;;15.95;11.00;;;14.10;99.90;;;;;;4992603;28;20481;-37
2023/09/09 06:06:03;;;;;;;19.60;10.80;;;14.20;99.90;;;;;;5001850;28;20432;-37
2023/09/09 06:08:29;;;;;;;12.88;9.70;;;14.20;99.90;;;;;;4998748;28;20397;-40
2023/09/09 06:10:54;;;;;;;12.60;10.05;;;14.30;99.90;;;;;;5012800;28;20033;-39
2023/09/09 06:13:20;;;;;;;16.45;11.40;;;14.40;99.90;;;;;;4989817;28;20030;-40
2023/09/09 06:15:46;;;;;;;13.23;10.98;;;14.50;99.90;;;;;;5007293;28;20033;-38
2023/09/09 06:18:11;;;;;;;24.70;12.80;;;14.60;99.90;;;;;;5005497;28;20507;-41
2023/09/09 06:20:37;;;;;;;15.50;12.02;;;14.50;99.90;;;;;;4989005;28;20040;-40
2023/09/09 06:23:03;;;;;;;22.95;11.75;;;14.60;99.90;;;;;;5006288;28;21602;-40
2023/09/09 06:25:29;;;;;;;17.15;11.68;;;14.70;99.90;;;;;;5004486;28;20084;-39
2023/09/09 06:27:55;;;;;;;41.45;14.48;;;14.70;99.90;;;;;;4987730;28;20056;-41
2023/09/09 06:30:20;;;;;;;30.73;14.00;;;14.80;99.90;;;;;;5009793;28;20033;-40
2023/09/09 06:32:46;;;;;;;15.90;12.60;;;14.80;99.90;;;;;;4986822;28;20520;-41
2023/09/09 06:35:12;;;;;;;36.13;14.57;;;14.90;99.90;;;;;;5000976;28;20026;-40
2023/09/09 06:37:37;;;;;;;24.65;14.63;;;14.90;99.90;;;;;;5008222;28;20030;-38
2023/09/09 06:40:03;;;;;;;43.92;16.02;;;14.90;99.90;;;;;;4983402;28;20477;-39
2023/09/09 06:42:29;;;;;;;21.30;13.00;;;14.90;99.90;;;;;;5009252;28;20029;-41
2023/09/09 06:44:55;;;;;;;27.52;15.23;;;14.90;99.90;;;;;;5004104;28;20038;-36
2023/09/09 06:47:20;;;;;;;35.53;15.30;;;15.00;99.90;;;;;;5005978;28;20056;-39
2023/09/09 06:49:46;;;;;;;26.92;13.43;;;15.10;99.90;;;;;;4985198;28;20181;-41
2023/09/09 06:52:11;;;;;;;15.13;12.80;;;15.20;99.90;;;;;;5001946;28;20017;-40
2023/09/09 06:54:37;;;;;;;35.75;14.23;;;15.30;99.90;;;;;;5006088;28;20096;-41
2023/09/09 06:57:03;;;;;;;15.57;12.85;;;15.30;99.90;;;;;;5006025;28;20030;-36
2023/09/09 06:59:30;;;;;;;15.93;13.35;;;15.40;99.90;;;;;;5003779;28;20048;-41
2023/09/09 07:01:55;;;;;;;16.85;13.52;;;15.60;99.90;;;;;;4985445;28;20087;-34
2023/09/09 07:04:21;;;;;;;21.35;13.95;;;15.70;99.90;;;;;;5008597;28;20120;-33
2023/09/09 07:06:47;;;;;;;18.80;13.70;;;15.80;99.90;;;;;;4987638;28;20380;-35
2023/09/09 07:09:12;;;;;;;19.08;14.77;;;16.00;99.90;;;;;;5005054;28;20038;-31
2023/09/09 07:11:38;;;;;;;19.27;13.75;;;16.10;99.90;;;;;;5003245;28;20029;-34
2023/09/09 07:14:04;;;;;;;19.55;14.75;;;16.20;99.90;;;;;;4979494;28;20059;-38
2023/09/09 07:16:31;;;;;;;19.33;14.93;;;16.30;99.90;;;;;;4987411;28;20167;-38
2023/09/09 07:18:57;;;;;;;19.52;14.80;;;16.40;99.90;;;;;;5004803;28;20076;-36
2023/09/09 07:21:23;;;;;;;23.48;15.15;;;16.50;99.90;;;;;;5003091;28;20839;-35
2023/09/09 07:23:49;;;;;;;23.45;16.50;;;16.60;99.90;;;;;;4987334;28;20033;-38
2023/09/09 07:26:14;;;;;;;21.15;15.75;;;16.70;99.90;;;;;;4985407;28;20036;-42
2023/09/09 07:28:40;;;;;;;19.13;15.25;;;16.80;99.90;;;;;;5010192;28;20042;-41
2023/09/09 07:31:06;;;;;;;24.15;15.20;;;17.00;99.90;;;;;;4980588;28;20038;-39
2023/09/09 07:33:31;;;;;;;23.27;16.27;;;17.10;99.90;;;;;;5005949;28;20109;-34
2023/09/09 07:35:57;;;;;;;22.77;16.80;;;17.30;99.90;;;;;;4979647;28;20803;-37
2023/09/09 07:38:23;;;;;;;22.55;16.15;;;17.50;99.90;;;;;;4983556;28;20040;-40
2023/09/09 07:40:53;;;;;;;25.30;16.88;;;17.70;99.90;;;;;;5005054;28;20025;-41
2023/09/09 07:43:20;;;;;;;23.33;16.77;;;17.80;99.90;;;;;;4978867;28;20030;-40
2023/09/09 07:45:47;;;;;;;23.33;16.13;;;18.00;99.90;;;;;;4983799;28;20642;-40
2023/09/09 07:48:13;;;;;;;23.17;16.20;;;18.10;99.90;;;;;;4982365;28;20038;-38
2023/09/09 07:50:38;;;;;;;24.48;16.55;;;18.40;99.90;;;;;;4999491;28;20049;-40
2023/09/09 07:53:04;;;;;;;25.23;17.98;;;18.60;99.90;;;;;;5003538;28;20064;-38
2023/09/09 07:55:30;;;;;;;26.55;18.73;;;18.60;99.90;;;;;;5001640;28;20112;-42
2023/09/09 07:57:55;;;;;;;28.05;19.58;;;18.70;99.90;;;;;;5003530;28;20113;-41
2023/09/09 08:00:22;;;;;;;27.95;20.45;;;18.70;99.90;;;;;;4983796;28;20107;-38
2023/09/09 08:02:47;;;;;;;29.70;20.20;;;18.90;99.90;;;;;;4998828;28;20030;-34
2023/09/09 08:05:13;;;;;;;27.55;21.02;;;19.00;99.90;;;;;;4982943;28;20761;-41
2023/09/09 08:07:39;;;;;;;27.77;19.98;;;19.30;99.90;;;;;;4985289;28;20026;-40
2023/09/09 08:10:08;;;;;;;30.50;21.38;;;19.50;99.90;;;;;;4982425;28;20026;-38
2023/09/09 08:12:34;;;;;;;26.83;19.67;;;19.60;99.90;;;;;;5004144;28;20030;-42
2023/09/09 08:15:08;;;;;;;28.67;21.15;;;19.70;99.90;;;;;;5002605;28;20037;-35
2023/09/09 08:17:34;;;;;;;27.67;19.85;;;19.90;99.90;;;;;;5010642;28;20009;-32
2023/09/09 08:20:00;;;;;;;26.27;19.23;;;20.00;99.90;;;;;;5006331;28;20037;-34
2023/09/09 08:22:29;;;;;;;27.10;19.27;;;20.10;99.90;;;;;;5006727;28;20108;-34
2023/09/09 08:24:54;;;;;;;25.88;19.23;;;20.40;99.90;;;;;;4984960;28;20076;-41
2023/09/09 08:27:20;;;;;;;26.35;19.45;;;20.60;99.90;;;;;;4983655;28;20061;-38
2023/09/09 08:29:46;;;;;;;23.70;18.70;;;20.70;99.90;;;;;;5003365;28;20049;-37
2023/09/09 08:32:11;;;;;;;25.38;18.83;;;20.80;99.90;;;;;;5007355;28;20513;-39
2023/09/09 08:34:37;;;;;;;25.85;19.05;;;21.00;99.90;;;;;;5008240;28;20064;-41
2023/09/09 08:37:03;;;;;;;24.27;18.33;;;20.90;99.90;;;;;;5006537;28;20500;-37
2023/09/09 08:39:29;;;;;;;18.63;14.52;;;21.00;99.90;;;;;;5003209;28;20374;-40
2023/09/09 08:42:03;;;;;;;24.23;17.23;;;21.40;99.90;;;;;;5007269;28;20065;-37
2023/09/09 08:44:48;;;;;;;24.23;18.23;;;21.70;99.90;;;;;;4992215;28;20053;-37
2023/09/09 08:47:16;;;;;;;20.38;14.90;;;21.80;99.90;;;;;;5003348;28;20680;-40
2023/09/09 08:49:43;;;;;;;;;;;21.80;99.90;;;;;;5007293;28;20548;-37
2023/09/09 08:52:18;;;;;;;19.33;13.85;;;21.70;99.90;;;;;;5007336;28;19972;-38
2023/09/09 08:54:44;;;;;;;21.80;16.77;;;21.70;99.90;;;;;;5007034;28;20687;-39
2023/09/09 08:57:10;;;;;;;23.65;16.80;;;21.70;99.90;;;;;;5002405;28;20040;-38
2023/09/09 08:59:39;;;;;;;19.85;13.80;;;21.80;99.90;;;;;;4984779;28;20492;-40
2023/09/09 09:02:08;;;;;;;18.52;14.85;;;22.30;99.90;;;;;;4986315;28;20116;-40
2023/09/09 09:04:35;;;;;;;20.50;16.50;;;22.70;99.90;;;;;;5000506;28;20034;-39
2023/09/09 09:07:01;;;;;;;19.70;14.48;;;22.80;99.90;;;;;;5013258;28;20489;-39
2023/09/09 09:09:29;;;;;;;16.90;14.20;;;22.60;99.90;;;;;;4993399;28;20030;-40
2023/09/09 09:11:59;;;;;;;19.52;14.82;;;22.60;99.90;;;;;;4999740;28;20034;-39
2023/09/09 09:14:25;;;;;;;15.98;12.30;;;22.70;99.90;;;;;;5011228;28;20029;-40
2023/09/09 09:16:51;;;;;;;19.33;13.50;;;23.00;99.90;;;;;;4986831;28;20413;-40
2023/09/09 09:19:27;;;;;;;16.23;11.98;;;23.30;99.90;;;;;;4992370;28;20095;-38
2023/09/09 09:21:54;;;;;;;13.65;11.00;;;23.50;99.90;;;;;;4994762;28;20092;-39
2023/09/09 09:24:28;;;;;;;20.30;12.63;;;23.70;99.90;;;;;;5015378;28;20026;-33
2023/09/09 09:26:55;;;;;;;16.58;13.88;;;23.70;99.90;;;;;;5000256;28;20408;-31
2023/09/09 09:29:21;;;;;;;19.23;12.73;;;23.60;99.90;;;;;;4974548;28;20037;-34
2023/09/09 09:31:54;;;;;;;13.18;11.02;;;23.70;99.90;;;;;;4990377;28;20112;-30
2023/09/09 09:34:38;;;;;;;14.82;11.43;;;24.10;99.90;;;;;;4997861;28;20053;-31
2023/09/09 09:37:12;;;;;;;19.20;12.65;;;24.20;99.90;;;;;;4994234;28;20474;-30
2023/09/09 09:39:43;;;;;;;12.90;11.32;;;24.10;99.90;;;;;;4982342;28;20034;-31
2023/09/09 09:42:25;;;;;;;14.88;11.80;;;24.20;99.90;;;;;;4991496;28;20030;-30
2023/09/09 09:45:08;;;;;;;13.82;12.25;;;24.50;99.90;;;;;;4989106;28;20092;-34
2023/09/09 09:47:50;;;;;;;15.70;12.38;;;24.30;99.90;;;;;;4992052;28;20083;-29
2023/09/09 09:50:30;;;;;;;13.07;10.77;;;24.30;99.90;;;;;;5010201;28;20088;-32
2023/09/09 09:53:00;;;;;;;12.50;10.57;;;24.70;99.90;;;;;;4995655;28;20040;-30
2023/09/09 09:55:28;;;;;;;14.18;11.23;;;24.90;99.90;;;;;;4994208;28;20125;-33
2023/09/09 09:57:59;;;;;;;14.23;11.50;;;25.00;99.90;;;;;;4989541;28;20523;-31
2023/09/09 10:00:41;;;;;;;11.13;9.90;;;24.90;99.90;;;;;;4988373;28;20022;-32
2023/09/09 10:03:11;;;;;;;12.10;10.73;;;25.10;99.90;;;;;;4996389;28;20044;-32
2023/09/09 10:05:38;;;;;;;12.27;10.23;;;25.10;99.90;;;;;;4984477;28;20032;-32
2023/09/09 10:08:25;;;;;;;;;;;25.20;99.90;;;;;;4997764;28;20075;-34
2023/09/09 10:11:17;;;;;;;12.02;9.73;;;25.20;99.90;;;;;;5015576;28;19916;-30
2023/09/09 10:14:01;;;;;;;9.70;8.70;;;25.30;99.90;;;;;;4996127;28;20511;-32
2023/09/09 10:16:29;;;;;;;10.25;8.70;;;25.40;99.90;;;;;;4999126;28;20061;-29
2023/09/09 10:18:57;;;;;;;9.35;8.43;;;25.50;99.90;;;;;;4975793;28;20494;-31
2023/09/09 10:21:27;;;;;;;9.25;7.47;;;25.50;99.90;;;;;;4996465;28;20176;-32
2023/09/09 10:23:54;;;;;;;9.73;7.97;;;25.80;99.90;;;;;;4985045;28;20038;-36
2023/09/09 10:26:25;;;;;;;9.45;8.23;;;25.80;99.90;;;;;;4991834;28;20120;-34
2023/09/09 10:28:55;;;;;;;10.02;8.20;;;26.20;99.90;;;;;;4994862;28;20540;-31
2023/09/09 10:31:23;;;;;;;9.52;7.57;;;26.10;99.90;;;;;;4987713;28;20050;-31
2023/09/09 10:33:53;;;;;;;8.73;7.55;;;26.00;99.90;;;;;;4989159;28;20026;-33
2023/09/09 10:36:23;;;;;;;11.73;8.13;;;26.00;99.90;;;;;;4990751;28;20741;-31
2023/09/09 10:38:52;;;;;;;8.63;7.82;;;26.10;99.90;;;;;;4985614;28;20065;-32
2023/09/09 10:41:22;;;;;;;8.63;7.63;;;26.20;99.90;;;;;;5002690;28;20040;-31
2023/09/09 10:43:48;;;;;;;9.00;8.10;;;26.30;99.90;;;;;;4986065;28;20030;-32
2023/09/09 10:46:14;;;;;;;9.38;8.38;;;26.50;99.90;;;;;;4990190;28;20397;-31
2023/09/09 10:48:44;;;;;;;9.07;7.85;;;26.50;99.90;;;;;;4991416;28;20105;-34
2023/09/09 10:51:15;;;;;;;8.73;7.10;;;26.70;99.90;;;;;;4971306;28;20137;-31
2023/09/09 10:53:42;;;;;;;9.00;7.45;;;26.80;99.90;;;;;;4983404;28;20030;-33
2023/09/09 10:56:16;;;;;;;9.25;7.70;;;26.90;99.90;;;;;;4990768;28;20026;-33
2023/09/09 10:58:44;;;;;;;8.65;7.35;;;27.00;99.90;;;;;;4990104;28;20023;-32
2023/09/09 11:01:22;;;;;;;11.05;8.20;;;27.10;99.90;;;;;;4989641;28;20035;-35
2023/09/09 11:03:49;;;;;;;8.25;7.18;;;27.30;99.90;;;;;;4981112;28;20038;-37
2023/09/09 11:06:27;;;;;;;7.28;6.57;;;27.70;99.90;;;;;;4983363;28;20621;-34
2023/09/09 11:08:59;;;;;;;8.52;7.28;;;27.30;99.90;;;;;;4978568;28;20039;-34
2023/09/09 11:11:37;;;;;;;9.77;6.63;;;27.20;99.90;;;;;;4979720;28;20034;-30
2023/09/09 11:14:08;;;;;;;7.85;7.03;;;27.30;99.90;;;;;;4981188;28;20030;-32
2023/09/09 11:16:36;;;;;;;8.07;7.28;;;27.80;99.90;;;;;;4978093;28;20069;-32
2023/09/09 11:19:02;;;;;;;8.40;7.53;;;28.10;99.90;;;;;;4981249;28;20038;-34
2023/09/09 11:21:32;;;;;;;8.00;7.20;;;28.10;99.90;;;;;;4980074;28;20116;-33
2023/09/09 11:23:58;;;;;;;8.50;7.35;;;27.80;99.90;;;;;;4976558;28;20528;-33
2023/09/09 11:26:24;;;;;;;8.52;7.65;;;27.60;99.90;;;;;;4976798;28;20062;-32
2023/09/09 11:28:52;;;;;;;7.70;7.00;;;27.60;99.90;;;;;;4996428;28;20132;-31
2023/09/09 11:31:22;;;;;;;8.90;8.02;;;27.40;99.90;;;;;;5010984;28;20650;-30
2023/09/09 11:33:48;;;;;;;10.00;7.53;;;27.30;99.90;;;;;;4985186;28;20053;-32
2023/09/09 11:36:18;;;;;;;8.80;7.80;;;27.30;99.90;;;;;;4983298;28;20108;-31
2023/09/09 11:38:44;;;;;;;11.50;7.90;;;27.40;99.90;;;;;;5015434;28;20424;-31
2023/09/09 11:41:28;;;;;;;10.20;8.30;;;27.30;99.90;;;;;;5004665;28;20644;-30
2023/09/09 11:43:57;;;;;;;8.18;7.30;;;27.30;99.90;;;;;;5009702;28;20363;-39
2023/09/09 11:46:24;;;;;;;7.97;7.28;;;27.20;99.90;;;;;;5012225;28;20026;-40
2023/09/09 11:48:51;;;;;;;7.68;6.82;;;27.20;99.90;;;;;;4984762;28;20037;-40
2023/09/09 11:51:21;;;;;;;8.10;7.28;;;27.20;99.90;;;;;;5000335;28;20616;-40
2023/09/09 11:53:47;;;;;;;7.88;6.97;;;27.30;99.90;;;;;;4990976;28;20025;-33
2023/09/09 11:56:14;;;;;;;7.63;6.32;;;27.60;99.90;;;;;;5004034;28;20412;-35
2023/09/09 11:58:42;;;;;;;7.68;6.97;;;27.70;99.90;;;;;;4994782;28;20022;-32
2023/09/09 12:01:10;;;;;;;7.63;6.90;;;27.80;99.90;;;;;;4987863;28;20108;-31
2023/09/09 12:03:37;;;;;;;7.90;6.90;;;27.80;99.90;;;;;;4985390;28;20413;-33
2023/09/09 12:06:05;;;;;;;7.45;6.72;;;27.80;99.90;;;;;;4975187;28;20030;-31
2023/09/09 12:08:31;;;;;;;7.60;6.85;;;27.80;99.90;;;;;;4983388;28;20387;-30
2023/09/09 12:10:58;;;;;;;7.35;6.65;;;27.60;99.90;;;;;;4988058;28;20064;-36
2023/09/09 12:13:24;;;;;;;7.68;6.97;;;27.50;99.90;;;;;;4995767;28;20040;-31
2023/09/09 12:15:51;;;;;;;8.20;6.57;;;27.70;99.90;;;;;;4992981;28;20034;-32
2023/09/09 12:18:17;;;;;;;6.53;5.93;;;27.70;99.90;;;;;;4991578;28;20022;-32
2023/09/09 12:21:08;;;;;;;6.93;6.32;;;27.60;99.90;;;;;;5017611;28;20117;-32
2023/09/09 12:23:40;;;;;;;7.13;6.40;;;28.00;99.90;;;;;;5007905;28;20032;-37
2023/09/09 12:26:14;;;;;;;9.18;6.28;;;28.50;99.90;;;;;;5003689;28;20030;-31
2023/09/09 12:28:41;;;;;;;6.40;5.70;;;28.60;99.90;;;;;;5008868;28;20057;-31
2023/09/09 12:31:08;;;;;;;7.25;5.93;;;28.50;99.90;;;;;;4987961;28;20040;-31
2023/09/09 12:33:43;;;;;;;9.75;7.25;;;28.10;99.90;;;;;;5008378;28;20034;-31
2023/09/09 12:36:19;;;;;;;6.38;5.72;;;28.20;99.90;;;;;;5017331;28;20049;-32
2023/09/09 12:38:48;;;;;;;6.75;6.13;;;27.90;99.90;;;;;;5009872;28;20026;-33
2023/09/09 12:41:19;;;;;;;6.72;6.18;;;28.00;99.90;;;;;;4991444;28;20539;-35
2023/09/09 12:43:46;;;;;;;7.15;6.45;;;28.20;99.90;;;;;;4979530;28;20456;-34